Pulpca — PHMT — position and weather

sailwx.info

Track history (hours):
 
Tides and Currents Weather Stations Pressure Air Temp Water Temp Dewpoint Dewpoint Depression Visibility Wind Speed Wind Dir Waves Ship Positions

Pulpca

Last reported at 2015-Feb-28 08:29 UTC. Time now 2015-Mar-01 02:58 UTC.
Position N 55°34' E 015°22'.

Length 205 m; draft 7.2 m.

Type: Ship (hazmat cat A). MMSI: 245097000.

Date/timePositionNaut miles runAvg speedWind from/ knotsBaromVisibWave heightAir tempDewpointWater temp
2015-Feb-28 08:29N 55°34' E 015°22'1718.6
2015-Feb-28 07:33N 55°26' E 014°55'1818.0
2015-Feb-28 06:34N 55°16' E 014°30'1818.5
2015-Feb-28 05:33N 55°02' E 014°09'1918.6
2015-Feb-28 04:33N 54°54' E 013°39'1918.8
2015-Feb-28 03:33N 54°49' E 013°08'1918.7
2015-Feb-28 02:33N 54°42' E 012°38'1818.3
2015-Feb-28 01:33N 54°29' E 012°15'1818.5
2015-Feb-28 00:33N 54°18' E 011°50'1919.0
2015-Feb-27 23:33N 54°09' E 011°21'9 0.4
2015-Feb-27 03:33N 54°06' E 011°07'1717.5
2015-Feb-27 02:33N 54°16' E 011°31'1817.7
2015-Feb-27 01:33N 54°25' E 011°57'1615.8
2015-Feb-27 00:33N 54°36' E 012°16'1817.5
2015-Feb-26 23:33N 54°46' E 012°41'1818.0
2015-Feb-26 22:33N 54°53' E 013°10'1817.9
2015-Feb-26 21:33N 54°59' E 013°39'1817.8
2015-Feb-26 20:33N 55°06' E 014°08'1818.0
2015-Feb-26 19:33N 55°20' E 014°28'1818.0
2015-Feb-26 18:33N 55°32' E 014°52'1818.1
2015-Feb-26 17:33N 55°41' E 015°20'1918.1
2015-Feb-26 16:31N 55°50' E 015°49'32416.9
2015-Feb-25 21:18N 59°40' E 022°57'9 9.6
2015-Feb-25 20:21N 59°48' E 022°57'1 0.1
2015-Feb-25 09:28N 59°49' E 022°57'1213.6
2015-Feb-25 08:33N 59°42' E 023°17'2222.0
2015-Feb-25 07:33N 59°45' E 024°00'3022.3
2015-Feb-25 06:12N 59°52' E 024°58'3722.3
2015-Feb-25 04:33N 59°58' E 026°10'2222.0
2015-Feb-25 03:33N 60°00' E 026°54'2421.7
2015-Feb-25 02:27N 60°10' E 027°38'7715.6
2015-Feb-24 21:33N 59°54' E 030°08'3 2.7
2015-Feb-24 20:33N 59°54' E 030°14'0 0.0
2015-Feb-24 19:30N 59°54' E 030°14'0 0.0
2015-Feb-24 18:30N 59°54' E 030°14'0 0.0
2015-Feb-24 17:30N 59°54' E 030°14'0 0.0
2015-Feb-24 16:30N 59°54' E 030°14'0 0.0
2015-Feb-24 15:33N 59°54' E 030°14'0 0.0
2015-Feb-24 14:30N 59°54' E 030°14'0 0.0
2015-Feb-24 13:33N 59°54' E 030°14'0 0.0
2015-Feb-24 12:24N 59°54' E 030°14'0 0.0
2015-Feb-24 10:06N 59°54' E 030°14'0 0.0
2015-Feb-24 08:33N 59°54' E 030°14'0 0.0
2015-Feb-24 07:32N 59°54' E 030°14'0 0.2
2015-Feb-24 06:10N 59°54' E 030°13'3 3.4
2015-Feb-24 05:17N 59°54' E 030°08'99 3.8
2015-Feb-23 03:33N 59°59' E 026°50'5918.9
2015-Feb-23 00:26N 59°48' E 024°55'1719.0
2015-Feb-22 23:33N 59°44' E 024°23'1919.0
2015-Feb-22 22:32N 59°42' E 023°45'1919.0
2015-Feb-22 21:33N 59°42' E 023°08'9 2.2
2015-Feb-22 17:32N 59°49' E 022°57'34519.9
2015-Feb-22 00:14N 55°39' E 015°32'1421.1
2015-Feb-21 23:33N 55°33' E 015°09'2121.2
2015-Feb-21 22:33N 55°21' E 014°37'2120.8
2015-Feb-21 21:34N 55°05' E 014°14'2120.9
2015-Feb-21 20:33N 54°56' E 013°41'2121.3
2015-Feb-21 19:33N 54°50' E 013°06'2120.8
2015-Feb-21 18:33N 54°41' E 012°33'2020.3
2015-Feb-21 17:33N 54°26' E 012°10'2120.5
2015-Feb-21 16:33N 54°17' E 011°38'2120.8
2015-Feb-21 15:33N 54°05' E 011°09'2 0.1
2015-Feb-21 02:25N 54°07' E 011°09'1517.3
2015-Feb-21 01:33N 54°15' E 011°30'1717.4
2015-Feb-21 00:34N 54°24' E 011°55'1615.5
2015-Feb-20 23:33N 54°34' E 012°15'1717.4
2015-Feb-20 22:33N 54°45' E 012°39'1817.6
2015-Feb-20 21:33N 54°52' E 013°07'1817.7
2015-Feb-20 20:33N 54°58' E 013°36'1817.9
2015-Feb-20 19:34N 55°05' E 014°05'1818.2
2015-Feb-20 18:34N 55°19' E 014°26'1818.0
2015-Feb-20 17:34N 55°31' E 014°49'1817.8
2015-Feb-20 16:34N 55°41' E 015°15'34917.4
2015-Feb-19 20:31N 59°47' E 023°00'4 0.2
2015-Feb-19 03:33N 59°43' E 023°04'34218.6
2015-Feb-18 09:13N 55°41' E 015°33'1219.0
2015-Feb-18 08:33N 55°35' E 015°14'  
Track history (hours):
 
Tides and Currents Weather Stations Pressure Air Temp Water Temp Dewpoint Dewpoint Depression Visibility Wind Speed Wind Dir Waves Ship Positions

Pulpca

Last reported at 2015-Feb-28 08:29 UTC. Time now 2015-Mar-01 02:59 UTC.
Position N 55°34' E 015°22'.

Length 205 m; draft 7.2 m.

Type: Ship (hazmat cat A). MMSI: 245097000.

Date/timePositionNaut miles runAvg speedWind from/ knotsBaromVisibWave heightAir tempDewpointWater temp
2015-Feb-28 08:29N 55°34' E 015°22'1718.6
2015-Feb-28 07:33N 55°26' E 014°55'1818.0
2015-Feb-28 06:34N 55°16' E 014°30'1818.5
2015-Feb-28 05:33N 55°02' E 014°09'1918.6
2015-Feb-28 04:33N 54°54' E 013°39'1918.8
2015-Feb-28 03:33N 54°49' E 013°08'1918.7
2015-Feb-28 02:33N 54°42' E 012°38'1818.3
2015-Feb-28 01:33N 54°29' E 012°15'1818.5
2015-Feb-28 00:33N 54°18' E 011°50'1919.0
2015-Feb-27 23:33N 54°09' E 011°21'9 0.4
2015-Feb-27 03:33N 54°06' E 011°07'1717.5
2015-Feb-27 02:33N 54°16' E 011°31'1817.7
2015-Feb-27 01:33N 54°25' E 011°57'1615.8
2015-Feb-27 00:33N 54°36' E 012°16'1817.5
2015-Feb-26 23:33N 54°46' E 012°41'1818.0
2015-Feb-26 22:33N 54°53' E 013°10'1817.9
2015-Feb-26 21:33N 54°59' E 013°39'1817.8
2015-Feb-26 20:33N 55°06' E 014°08'1818.0
2015-Feb-26 19:33N 55°20' E 014°28'1818.0
2015-Feb-26 18:33N 55°32' E 014°52'1818.1
2015-Feb-26 17:33N 55°41' E 015°20'1918.1
2015-Feb-26 16:31N 55°50' E 015°49'32416.9
2015-Feb-25 21:18N 59°40' E 022°57'9 9.6
2015-Feb-25 20:21N 59°48' E 022°57'1 0.1
2015-Feb-25 09:28N 59°49' E 022°57'1213.6
2015-Feb-25 08:33N 59°42' E 023°17'2222.0
2015-Feb-25 07:33N 59°45' E 024°00'3022.3
2015-Feb-25 06:12N 59°52' E 024°58'3722.3
2015-Feb-25 04:33N 59°58' E 026°10'2222.0
2015-Feb-25 03:33N 60°00' E 026°54'2421.7
2015-Feb-25 02:27N 60°10' E 027°38'7715.6
2015-Feb-24 21:33N 59°54' E 030°08'3 2.7
2015-Feb-24 20:33N 59°54' E 030°14'0 0.0
2015-Feb-24 19:30N 59°54' E 030°14'0 0.0
2015-Feb-24 18:30N 59°54' E 030°14'0 0.0
2015-Feb-24 17:30N 59°54' E 030°14'0 0.0
2015-Feb-24 16:30N 59°54' E 030°14'0 0.0
2015-Feb-24 15:33N 59°54' E 030°14'0 0.0
2015-Feb-24 14:30N 59°54' E 030°14'0 0.0
2015-Feb-24 13:33N 59°54' E 030°14'0 0.0
2015-Feb-24 12:24N 59°54' E 030°14'0 0.0
2015-Feb-24 10:06N 59°54' E 030°14'0 0.0
2015-Feb-24 08:33N 59°54' E 030°14'0 0.0
2015-Feb-24 07:32N 59°54' E 030°14'0 0.2
2015-Feb-24 06:10N 59°54' E 030°13'3 3.4
2015-Feb-24 05:17N 59°54' E 030°08'99 3.8
2015-Feb-23 03:33N 59°59' E 026°50'5918.9
2015-Feb-23 00:26N 59°48' E 024°55'1719.0
2015-Feb-22 23:33N 59°44' E 024°23'1919.0
2015-Feb-22 22:32N 59°42' E 023°45'1919.0
2015-Feb-22 21:33N 59°42' E 023°08'9 2.2
2015-Feb-22 17:32N 59°49' E 022°57'34519.9
2015-Feb-22 00:14N 55°39' E 015°32'1421.1
2015-Feb-21 23:33N 55°33' E 015°09'2121.2
2015-Feb-21 22:33N 55°21' E 014°37'2120.8
2015-Feb-21 21:34N 55°05' E 014°14'2120.9
2015-Feb-21 20:33N 54°56' E 013°41'2121.3
2015-Feb-21 19:33N 54°50' E 013°06'2120.8
2015-Feb-21 18:33N 54°41' E 012°33'2020.3
2015-Feb-21 17:33N 54°26' E 012°10'2120.5
2015-Feb-21 16:33N 54°17' E 011°38'2120.8
2015-Feb-21 15:33N 54°05' E 011°09'2 0.1
2015-Feb-21 02:25N 54°07' E 011°09'1517.3
2015-Feb-21 01:33N 54°15' E 011°30'1717.4
2015-Feb-21 00:34N 54°24' E 011°55'1615.5
2015-Feb-20 23:33N 54°34' E 012°15'1717.4
2015-Feb-20 22:33N 54°45' E 012°39'1817.6
2015-Feb-20 21:33N 54°52' E 013°07'1817.7
2015-Feb-20 20:33N 54°58' E 013°36'1817.9
2015-Feb-20 19:34N 55°05' E 014°05'1818.2
2015-Feb-20 18:34N 55°19' E 014°26'1818.0
2015-Feb-20 17:34N 55°31' E 014°49'1817.8
2015-Feb-20 16:34N 55°41' E 015°15'34917.4
2015-Feb-19 20:31N 59°47' E 023°00'4 0.2
2015-Feb-19 03:33N 59°43' E 023°04'34218.6
2015-Feb-18 09:13N 55°41' E 015°33'1219.0
2015-Feb-18 08:33N 55°35' E 015°14'  

Dump ship's entire track history